Time;durP1;ratioP1;P1;durP2;ratioP2;P2;SDS_P1;SDS_P2;PMS_P1;PMS_P2;Temp;Humidity;BMP_temperature;BMP_pressure;BME280_temperature;BME280_humidity;BME280_pressure;Samples;Min_cycle;Max_cycle;Signal;HPM_P1;HPM_P2
2022/12/12 00:01:15;;;;;;;0.70;0.70;;;;;;;-3.87;94.48;101020.31;10513696;28;20533;-71
2022/12/12 00:06:18;;;;;;;3.95;3.35;;;;;;;-3.94;94.57;101020.59;10487695;28;20063;-71
2022/12/12 00:11:20;;;;;;;5.75;2.28;;;;;;;-4.03;94.66;101022.44;10512550;28;20552;-71
2022/12/12 00:16:23;;;;;;;3.15;2.20;;;;;;;-4.12;94.68;101014.94;10528948;28;20040;-71
2022/12/12 00:21:27;;;;;;;1.85;1.60;;;;;;;-4.22;94.72;101018.41;10507650;28;20043;-71
2022/12/12 00:26:31;;;;;;;1.70;1.60;;;;;;;-4.27;94.59;101019.72;10508562;28;20137;-71
2022/12/12 00:31:32;;;;;;;3.17;2.88;;;;;;;-4.32;94.72;101015.91;10510906;28;20437;-71
2022/12/12 00:36:34;;;;;;;0.75;0.75;;;;;;;-4.35;94.70;101010.53;10517413;28;20041;-71
2022/12/12 00:41:36;;;;;;;1.98;1.77;;;;;;;-4.38;94.72;101012.81;10514524;28;20127;-70
2022/12/12 00:46:38;;;;;;;1.42;1.33;;;;;;;-4.48;94.64;101013.75;10526738;28;20032;-71
2022/12/12 00:51:40;;;;;;;0.85;0.85;;;;;;;-4.60;94.76;101013.66;10493296;28;20126;-71
2022/12/12 00:56:41;;;;;;;2.65;1.80;;;;;;;-4.61;94.97;101019.53;10505866;28;20521;-71
2022/12/12 01:01:44;;;;;;;1.75;1.65;;;;;;;-4.68;94.93;101023.25;10522729;28;20048;-71
2022/12/12 01:06:45;;;;;;;2.00;1.77;;;;;;;-4.77;94.77;101022.50;10518461;28;20032;-71
2022/12/12 01:11:48;;;;;;;1.67;1.50;;;;;;;-4.81;94.77;101028.13;10506927;28;20047;-71
2022/12/12 01:16:49;;;;;;;1.17;0.90;;;;;;;-4.83;95.00;101032.22;10501341;28;20043;-71
2022/12/12 01:21:51;;;;;;;1.83;1.33;;;;;;;-4.91;95.01;101041.78;10518346;28;20040;-70
2022/12/12 01:26:53;;;;;;;1.88;1.23;;;;;;;-4.91;94.60;101046.03;10513965;28;20032;-71
2022/12/12 01:31:54;;;;;;;1.90;1.75;;;;;;;-4.92;94.83;101045.13;10522188;28;20123;-70
2022/12/12 01:36:56;;;;;;;4.38;2.50;;;;;;;-4.88;94.96;101054.84;10505518;28;20043;-71
2022/12/12 01:41:57;;;;;;;2.50;1.63;;;;;;;-4.84;94.95;101056.88;10512387;28;20112;-71
2022/12/12 01:47:00;;;;;;;2.15;1.40;;;;;;;-4.75;95.07;101048.19;10489562;28;20071;-71
2022/12/12 01:52:10;;;;;;;1.60;1.33;;;;;;;-4.65;95.01;101045.63;10514195;28;20504;-71
2022/12/12 01:57:19;;;;;;;5.00;1.52;;;;;;;-4.55;94.96;101048.13;10516173;28;20036;-70
2022/12/12 02:02:21;;;;;;;2.08;1.08;;;;;;;-4.47;95.11;101057.34;10516346;28;20044;-71
2022/12/12 02:07:22;;;;;;;2.47;2.28;;;;;;;-4.40;95.03;101056.16;10506339;28;20044;-72
2022/12/12 02:12:24;;;;;;;1.25;1.15;;;;;;;-4.33;95.46;101060.13;10516219;28;20147;-72
2022/12/12 02:17:53;;;;;;;2.67;2.05;;;;;;;-4.27;95.28;101065.72;10525289;28;20479;-70
2022/12/12 02:23:38;;;;;;;3.55;2.90;;;;;;;-4.21;95.28;101061.13;10514459;28;20040;-71
2022/12/12 02:29:03;;;;;;;17.48;1.17;;;;;;;-4.21;95.33;101056.00;10492706;28;20052;-71
2022/12/12 02:34:17;;;;;;;1.80;1.67;;;;;;;-4.26;95.18;101057.31;10516404;28;20048;-70
2022/12/12 02:39:28;;;;;;;4.78;3.03;;;;;;;-4.37;95.12;101051.31;10504304;28;20048;-71
2022/12/12 02:44:46;;;;;;;1.25;1.15;;;;;;;-4.44;95.08;101047.38;10521712;28;20051;-71
2022/12/12 02:49:54;;;;;;;0.95;0.95;;;;;;;-4.59;95.22;101053.78;10521793;28;20035;-71
2022/12/12 02:54:55;;;;;;;0.75;0.75;;;;;;;-4.70;95.01;101052.91;10509175;28;20504;-71
2022/12/12 03:00:03;;;;;;;1.92;1.83;;;;;;;-4.80;94.94;101053.81;10514075;28;20563;-71
2022/12/12 03:11:10;;;;;;;0.73;0.65;;;;;;;-4.99;95.25;101074.38;10507167;28;20055;-71
2022/12/12 03:16:31;;;;;;;3.55;1.90;;;;;;;-5.07;94.80;101066.84;10494062;28;20052;-71
2022/12/12 03:21:44;;;;;;;0.93;0.77;;;;;;;-5.16;95.03;101067.84;10506758;28;20071;-71
2022/12/12 03:26:59;;;;;;;1.70;1.60;;;;;;;-5.16;95.06;101065.28;10512692;28;20844;-71
2022/12/12 03:32:07;;;;;;;2.20;1.35;;;;;;;-5.06;95.23;101066.97;10522001;28;20040;-71
2022/12/12 03:37:14;;;;;;;1.35;1.25;;;;;;;-5.04;95.15;101067.09;10518571;28;20464;-71
2022/12/12 03:42:30;;;;;;;2.42;1.70;;;;;;;-5.05;95.10;101062.75;10484516;28;20051;-72
2022/12/12 03:47:46;;;;;;;2.10;1.95;;;;;;;-5.01;94.90;101064.81;10505633;28;20556;-71
2022/12/12 03:52:58;;;;;;;1.20;1.02;;;;;;;-5.06;95.11;101066.97;10501740;28;20052;-71
2022/12/12 03:58:12;;;;;;;2.35;1.30;;;;;;;-5.11;95.20;101062.25;10516586;28;20044;-71
2022/12/12 04:03:31;;;;;;;1.50;1.30;;;;;;;-5.16;94.87;101070.41;10527937;28;20518;-71
2022/12/12 04:08:33;;;;;;;1.15;1.00;;;;;;;-5.19;95.05;101066.72;10503884;28;20547;-71
2022/12/12 04:14:09;;;;;;;2.90;1.98;;;;;;;-5.19;95.02;101072.69;10503968;28;20056;-71
2022/12/12 04:25:04;;;;;;;3.58;2.13;;;;;;;-5.12;94.95;101080.88;10501966;28;20049;-71
2022/12/12 04:30:08;;;;;;;1.52;1.33;;;;;;;-5.05;95.10;101078.06;10524759;28;20048;-71
2022/12/12 04:35:15;;;;;;;2.53;2.33;;;;;;;-5.03;94.94;101084.19;10504624;28;20048;-71
2022/12/12 04:40:34;;;;;;;2.50;2.30;;;;;;;-5.00;95.31;101084.44;10517448;28;20048;-71
2022/12/12 04:45:41;;;;;;;2.72;2.50;;;;;;;-4.99;94.92;101078.59;10518643;28;20595;-71
2022/12/12 04:50:49;;;;;;;1.67;1.58;;;;;;;-5.01;94.85;101080.13;10518714;28;20102;-70
2022/12/12 04:55:58;;;;;;;2.17;1.60;;;;;;;-5.04;95.26;101079.88;10509967;28;20086;-71
2022/12/12 05:01:08;;;;;;;2.33;2.13;;;;;;;-4.99;94.98;101079.47;10510253;28;20437;-71
2022/12/12 05:06:13;;;;;;;3.22;2.28;;;;;;;-4.97;95.07;101084.72;10507727;28;20134;-71
2022/12/12 05:11:17;;;;;;;1.67;1.58;;;;;;;-5.00;95.03;101087.00;10520688;28;20049;-71
2022/12/12 05:16:20;;;;;;;1.23;1.13;;;;;;;-5.04;94.86;101085.88;10515582;28;20048;-71
2022/12/12 05:21:22;;;;;;;2.10;1.30;;;;;;;-5.02;94.93;101073.22;10509799;28;20577;-71
2022/12/12 05:26:26;;;;;;;3.40;1.70;;;;;;;-5.08;95.05;101072.72;10515983;28;20452;-71
2022/12/12 05:31:27;;;;;;;2.78;2.53;;;;;;;-5.16;94.87;101072.97;10501635;28;20413;-72
2022/12/12 05:36:29;;;;;;;1.45;1.35;;;;;;;-5.30;94.90;101078.53;10508249;28;20055;-71
2022/12/12 05:41:30;;;;;;;1.17;1.02;;;;;;;-5.44;94.73;101081.59;10501497;28;20039;-71
2022/12/12 05:46:32;;;;;;;1.25;1.15;;;;;;;-5.58;94.98;101086.41;10499698;28;20048;-71
2022/12/12 05:51:33;;;;;;;1.30;1.20;;;;;;;-5.63;94.82;101090.22;10498452;28;20463;-71
2022/12/12 05:56:35;;;;;;;5.30;1.70;;;;;;;-5.71;94.74;101096.31;10503352;28;20054;-72
2022/12/12 06:01:36;;;;;;;1.42;1.33;;;;;;;-5.78;94.64;101091.44;10508218;28;20047;-73
2022/12/12 06:06:38;;;;;;;2.67;2.42;;;;;;;-5.84;94.51;101101.09;10502541;28;20493;-73
2022/12/12 06:11:39;;;;;;;2.38;2.05;;;;;;;-5.94;94.72;101107.94;10496001;28;20035;-73
2022/12/12 06:16:41;;;;;;;0.30;0.30;;;;;;;-6.06;94.71;101107.78;10513505;28;20047;-72
2022/12/12 06:21:42;;;;;;;1.27;1.20;;;;;;;-6.15;94.23;101106.97;10507851;28;20662;-73
2022/12/12 06:26:44;;;;;;;2.95;2.33;;;;;;;-6.11;94.39;101108.13;10476135;28;20480;-73
2022/12/12 06:31:45;;;;;;;1.73;1.63;;;;;;;-6.16;94.59;101114.50;10502201;28;20382;-72
2022/12/12 06:36:47;;;;;;;0.75;0.75;;;;;;;-6.20;94.68;101117.53;10490555;28;20098;-72
2022/12/12 06:41:48;;;;;;;1.35;1.25;;;;;;;-6.24;94.39;101116.38;10522332;28;20105;-72
2022/12/12 06:46:50;;;;;;;2.60;2.20;;;;;;;-6.37;94.70;101119.44;10508472;28;20097;-72
2022/12/12 06:51:51;;;;;;;1.20;1.10;;;;;;;-6.46;94.11;101119.50;10522537;28;20040;-73
2022/12/12 06:56:53;;;;;;;1.73;1.23;;;;;;;-6.51;94.81;101119.88;10522390;28;20059;-72
2022/12/12 07:01:55;;;;;;;0.63;0.63;;;;;;;-6.60;94.06;101128.47;10513898;28;20161;-72
2022/12/12 07:06:57;;;;;;;1.60;1.17;;;;;;;-6.55;94.00;101128.00;10504564;28;20140;-72
2022/12/12 07:11:59;;;;;;;1.15;1.05;;;;;;;-6.58;94.28;101124.41;10508336;28;20048;-72
2022/12/12 07:17:01;;;;;;;2.50;2.05;;;;;;;-6.62;94.25;101123.97;10531379;28;20593;-72
2022/12/12 07:22:02;;;;;;;9.68;5.53;;;;;;;-6.69;94.09;101129.28;10525336;28;20043;-72
2022/12/12 07:27:10;;;;;;;2.17;2.03;;;;;;;-6.75;94.51;101127.97;10531346;28;20047;-71
2022/12/12 07:32:16;;;;;;;5.95;3.47;;;;;;;-6.72;94.30;101129.00;10514155;28;20093;-73
2022/12/12 07:37:17;;;;;;;12.73;6.45;;;;;;;-6.74;93.92;101128.84;10519968;28;20040;-72
2022/12/12 07:42:19;;;;;;;2.83;2.55;;;;;;;-6.66;94.45;101130.47;10508773;28;20051;-75
2022/12/12 07:47:21;;;;;;;2.95;2.15;;;;;;;-6.64;94.11;101136.56;10515471;28;20063;-76
2022/12/12 07:52:22;;;;;;;1.20;1.10;;;;;;;-6.56;94.43;101137.28;10524355;28;20123;-75
2022/12/12 07:57:24;;;;;;;2.28;1.85;;;;;;;-6.41;94.14;101138.69;10519487;28;20051;-75
2022/12/12 08:02:25;;;;;;;1.52;1.17;;;;;;;-6.30;94.30;101146.41;10524670;28;20048;-75
2022/12/12 08:07:27;;;;;;;2.97;2.70;;;;;;;-6.22;94.46;101151.41;10513032;28;20098;-75
2022/12/12 08:12:29;;;;;;;3.03;2.08;;;;;;;-6.11;93.91;101148.94;10522475;28;20036;-76
2022/12/12 08:17:30;;;;;;;2.28;2.08;;;;;;;-5.99;94.22;101150.03;10524292;28;20052;-75
2022/12/12 08:22:32;;;;;;;4.18;2.22;;;;;;;-5.86;93.86;101150.31;10505890;28;20059;-75
2022/12/12 08:27:33;;;;;;;2.30;2.10;;;;;;;-5.73;94.33;101148.88;10521323;28;20032;-75
2022/12/12 08:32:35;;;;;;;1.30;1.25;;;;;;;-5.60;94.39;101153.38;10502860;28;20114;-75
2022/12/12 08:37:37;;;;;;;2.63;2.40;;;;;;;-5.43;94.40;101160.84;10516310;28;20039;-74
2022/12/12 08:42:38;;;;;;;2.13;1.95;;;;;;;-5.38;94.02;101174.00;10515292;28;20064;-75
2022/12/12 08:47:40;;;;;;;2.42;2.05;;;;;;;-5.25;93.90;101176.84;10509903;28;20738;-77
2022/12/12 08:52:42;;;;;;;2.20;1.58;;;;;;;-5.21;94.29;101173.81;10515018;28;20045;-76
2022/12/12 08:57:43;;;;;;;6.90;3.50;;;;;;;-5.13;93.98;101183.78;10495285;28;20040;-75
2022/12/12 09:02:45;;;;;;;4.22;2.40;;;;;;;-5.09;93.91;101180.72;10516286;28;20040;-75
2022/12/12 09:07:46;;;;;;;0.85;0.85;;;;;;;-5.01;94.02;101182.28;10524662;28;20036;-77
2022/12/12 09:12:48;;;;;;;1.60;1.50;;;;;;;-4.97;93.88;101176.66;10498397;28;20040;-74
2022/12/12 09:17:49;;;;;;;2.55;2.35;;;;;;;-4.95;93.73;101184.44;10523993;28;20044;-76
2022/12/12 09:22:51;;;;;;;1.95;1.35;;;;;;;-4.88;93.49;101179.09;10494972;28;20440;-76
2022/12/12 09:27:53;;;;;;;1.73;1.63;;;;;;;-4.77;93.99;101183.47;10522890;28;20436;-76
2022/12/12 09:32:54;;;;;;;3.63;3.33;;;;;;;-4.62;93.81;101186.44;10527835;28;20723;-75
2022/12/12 09:37:56;;;;;;;3.72;2.30;;;;;;;-4.45;94.01;101183.63;10515047;28;20050;-76
2022/12/12 09:42:57;;;;;;;2.90;2.60;;;;;;;-4.27;94.05;101188.47;10504395;28;20059;-76
2022/12/12 09:48:02;;;;;;;2.80;1.92;;;;;;;-3.94;94.05;101184.34;10507831;28;20052;-76
2022/12/12 09:53:09;;;;;;;3.83;2.72;;;;;;;-3.65;94.00;101188.34;10504217;28;20134;-76
2022/12/12 09:58:23;;;;;;;2.05;1.88;;;;;;;-3.40;93.95;101189.53;10519372;28;20043;-76
2022/12/12 10:03:39;;;;;;;2.47;2.28;;;;;;;-3.24;93.91;101194.22;10501871;28;20051;-76
2022/12/12 10:09:06;;;;;;;2.10;1.90;;;;;;;-3.13;93.78;101192.50;10496010;28;20043;-76
2022/12/12 10:14:09;;;;;;;2.30;2.13;;;;;;;-2.95;93.53;101193.03;10514078;28;20052;-77
2022/12/12 10:19:26;;;;;;;4.80;3.83;;;;;;;-2.69;93.30;101189.03;10476129;28;20422;-76
2022/12/12 10:24:34;;;;;;;3.55;2.70;;;;;;;-2.58;92.95;101187.28;10518898;28;20040;-76
2022/12/12 10:29:40;;;;;;;2.60;1.90;;;;;;;-2.52;92.80;101188.66;10500625;28;20049;-76
2022/12/12 10:34:57;;;;;;;2.72;1.95;;;;;;;-2.31;92.36;101191.94;10494710;28;20040;-76
2022/12/12 10:39:58;;;;;;;5.97;2.88;;;;;;;-2.01;92.31;101182.19;10494350;28;20032;-76
2022/12/12 10:45:11;;;;;;;2.38;2.17;;;;;;;-1.92;92.05;101174.28;10495360;28;20047;-76
2022/12/12 10:50:32;;;;;;;2.35;1.85;;;;;;;-2.01;91.45;101171.00;10480381;28;20101;-76
2022/12/12 10:55:55;;;;;;;2.65;2.25;;;;;;;-2.05;91.13;101167.34;10519469;28;20044;-76
2022/12/12 11:01:02;;;;;;;3.63;2.65;;;;;;;-1.95;91.12;101166.34;10507732;28;20044;-75
2022/12/12 11:06:09;;;;;;;3.00;2.33;;;;;;;-1.93;91.10;101171.59;10512330;28;20037;-77
2022/12/12 11:11:19;;;;;;;3.63;3.15;;;;;;;-1.90;90.61;101174.38;10490668;28;20078;-76
2022/12/12 11:16:25;;;;;;;;;;;;;;;-1.71;90.58;101177.50;10515136;28;20044;-78
2022/12/12 11:21:27;;;;;;;4.03;2.88;;;;;;;-1.86;90.61;101171.25;10521256;28;20428;-76
2022/12/12 11:26:29;;;;;;;3.88;2.45;;;;;;;-2.00;90.56;101173.72;10488830;28;20051;-76
2022/12/12 11:31:33;;;;;;;2.60;1.98;;;;;;;-1.99;90.42;101162.66;10512256;28;20417;-77
2022/12/12 11:36:37;;;;;;;3.10;2.65;;;;;;;-1.87;90.38;101164.34;10488350;28;20164;-76
2022/12/12 11:41:57;;;;;;;3.17;2.70;;;;;;;-1.74;90.65;101156.75;10495869;28;20035;-77
2022/12/12 11:47:17;;;;;;;2.60;2.33;;;;;;;-1.64;90.55;101153.16;10505719;28;20044;-77
2022/12/12 11:52:22;;;;;;;2.25;2.05;;;;;;;-1.58;90.48;101152.72;10489491;28;20470;-77
2022/12/12 11:57:46;;;;;;;3.00;1.58;;;;;;;-1.54;90.64;101154.72;10485762;28;20040;-77
2022/12/12 12:03:06;;;;;;;2.50;1.83;;;;;;;-1.44;90.37;101145.22;10456125;28;20267;-77
2022/12/12 12:08:52;;;;;;;3.05;2.05;;;;;;;-1.47;90.28;101144.06;10506343;28;20073;-77
2022/12/12 12:14:20;;;;;;;1.40;1.30;;;;;;;-1.48;90.41;101144.88;10470473;28;20044;-76
2022/12/12 12:19:42;;;;;;;2.75;2.22;;;;;;;-1.47;90.51;101141.50;10512323;28;20041;-76
2022/12/12 12:25:13;;;;;;;1.52;1.25;;;;;;;-1.43;90.13;101138.38;10514891;28;20047;-77
2022/12/12 12:30:38;;;;;;;2.05;1.85;;;;;;;-1.34;90.35;101141.59;10496673;28;20555;-77
2022/12/12 12:35:47;;;;;;;2.25;2.05;;;;;;;-1.33;90.49;101138.25;10488722;28;20245;-77
2022/12/12 12:41:03;;;;;;;4.82;4.35;;;;;;;-1.27;90.28;101136.09;10462583;28;20033;-76
2022/12/12 12:46:17;;;;;;;4.60;2.22;;;;;;;-1.18;90.35;101142.69;10504744;28;20050;-77
2022/12/12 12:51:45;;;;;;;2.03;1.83;;;;;;;-1.09;90.36;101133.94;10494459;28;20088;-76
2022/12/12 12:57:04;;;;;;;4.38;3.65;;;;;;;-1.13;90.11;101119.06;10494624;28;20032;-76
2022/12/12 13:02:25;;;;;;;2.95;2.03;;;;;;;-1.12;90.34;101110.59;10493969;28;20043;-76
2022/12/12 13:07:40;;;;;;;3.42;2.97;;;;;;;-1.14;90.08;101114.75;10490857;28;20582;-77
2022/12/12 13:13:13;;;;;;;4.38;2.95;;;;;;;-1.08;89.98;101111.72;10500124;28;20056;-78
2022/12/12 13:18:16;;;;;;;9.40;2.42;;;;;;;-1.01;90.11;101113.00;10490388;28;20036;-76
2022/12/12 13:23:48;;;;;;;3.53;2.17;;;;;;;-0.98;89.71;101119.25;10479509;28;20067;-78
2022/12/12 13:28:49;;;;;;;3.25;2.17;;;;;;;-1.04;89.43;101120.50;10484520;28;20051;-76
2022/12/12 13:34:00;;;;;;;1.88;1.73;;;;;;;-1.08;89.55;101112.59;10493439;28;20451;-76
2022/12/12 13:39:04;;;;;;;1.48;1.38;;;;;;;-1.17;89.52;101108.47;10470647;28;20120;-77
2022/12/12 13:44:32;;;;;;;3.67;2.33;;;;;;;-1.25;89.59;101125.94;10481027;28;20044;-78
2022/12/12 13:49:44;;;;;;;9.43;2.15;;;;;;;-1.31;89.55;101126.41;10515584;28;20051;-77
2022/12/12 13:54:47;;;;;;;4.50;3.83;;;;;;;-1.37;89.51;101130.22;10493984;28;20056;-77
2022/12/12 13:59:51;;;;;;;2.53;2.33;;;;;;;-1.45;89.34;101128.00;10501353;28;20456;-77
2022/12/12 14:05:29;;;;;;;3.80;2.88;;;;;;;-1.53;89.34;101125.66;10514221;28;20055;-77
2022/12/12 14:10:42;;;;;;;3.13;2.63;;;;;;;-1.64;89.50;101136.06;10452101;28;22051;-77
2022/12/12 14:15:45;;;;;;;1.33;1.20;;;;;;;-1.79;89.51;101137.53;10509383;28;20117;-75
2022/12/12 14:21:03;;;;;;;2.42;2.13;;;;;;;-1.86;89.36;101136.22;10510624;28;20040;-76
2022/12/12 14:26:34;;;;;;;3.58;2.92;;;;;;;-1.86;89.52;101132.72;10519533;28;20044;-78
2022/12/12 14:31:40;;;;;;;2.13;1.88;;;;;;;-1.98;89.66;101141.34;10481814;28;20051;-76
2022/12/12 14:36:59;;;;;;;3.00;2.50;;;;;;;-2.11;89.70;101140.34;10507496;28;20102;-75
2022/12/12 14:42:09;;;;;;;3.38;2.97;;;;;;;-2.09;89.97;101141.34;10514992;28;20045;-75
2022/12/12 14:47:15;;;;;;;4.45;3.47;;;;;;;-2.07;89.92;101142.31;10487592;28;20044;-76
2022/12/12 14:52:22;;;;;;;1.40;1.30;;;;;;;-2.09;90.42;101133.63;10512275;28;20045;-75
2022/12/12 14:57:24;;;;;;;1.15;1.10;;;;;;;-2.14;90.18;101143.56;10534009;28;20054;-75
2022/12/12 15:02:33;;;;;;;3.42;2.15;;;;;;;-2.22;90.33;101160.03;10522957;28;20043;-75
2022/12/12 15:07:37;;;;;;;1.63;1.38;;;;;;;-2.33;90.15;101159.25;10494421;28;20058;-75
2022/12/12 15:12:43;;;;;;;4.53;2.67;;;;;;;-2.36;90.39;101175.31;10480478;28;20051;-75
2022/12/12 15:17:48;;;;;;;1.98;1.58;;;;;;;-2.45;90.67;101160.91;10498654;28;20050;-74
2022/12/12 15:22:57;;;;;;;3.05;2.15;;;;;;;-2.56;90.38;101172.91;10487681;28;20047;-76
2022/12/12 15:28:01;;;;;;;2.73;1.77;;;;;;;-2.71;90.97;101173.53;10511312;28;20101;-75
2022/12/12 15:33:05;;;;;;;3.65;2.75;;;;;;;-2.79;90.80;101183.97;10509654;28;20455;-74
2022/12/12 15:38:12;;;;;;;11.02;2.25;;;;;;;-2.84;90.96;101175.94;10504465;28;20066;-76
2022/12/12 15:43:22;;;;;;;6.05;1.88;;;;;;;-2.94;91.06;101181.09;10507857;28;20056;-77
2022/12/12 15:48:24;;;;;;;2.05;1.75;;;;;;;-3.14;90.86;101170.19;10486250;28;20044;-75
2022/12/12 15:53:30;;;;;;;2.80;2.35;;;;;;;-3.20;90.94;101180.88;10480257;28;20059;-74
2022/12/12 15:58:40;;;;;;;3.20;2.30;;;;;;;-3.38;90.97;101179.41;10511430;28;20055;-74
2022/12/12 16:04:02;;;;;;;1.42;1.30;;;;;;;-3.59;91.24;101183.72;10539222;28;20501;-74
2022/12/12 16:09:10;;;;;;;3.20;2.85;;;;;;;-3.73;91.14;101180.94;10530876;28;20044;-76
2022/12/12 16:14:40;;;;;;;3.13;2.45;;;;;;;-3.91;91.23;101182.91;10509358;28;20448;-75
2022/12/12 16:19:51;;;;;;;5.50;3.83;;;;;;;-3.99;91.17;101193.31;10518048;28;20054;-75
2022/12/12 16:25:17;;;;;;;1.90;1.80;;;;;;;-4.13;91.89;101197.28;10504121;28;20047;-73
2022/12/12 16:30:18;;;;;;;3.88;2.92;;;;;;;-4.30;91.56;101190.78;10510346;28;20056;-74
2022/12/12 16:35:22;;;;;;;2.55;1.85;;;;;;;-4.44;91.62;101177.75;10510178;28;20040;-76
2022/12/12 16:40:23;;;;;;;1.45;1.27;;;;;;;-4.46;91.81;101180.94;10522924;28;20031;-74
2022/12/12 16:45:25;;;;;;;6.70;2.53;;;;;;;-4.57;91.89;101171.50;10495218;28;20044;-75
2022/12/12 16:50:27;;;;;;;1.67;1.55;;;;;;;-4.62;91.85;101181.31;10517937;28;20117;-74
2022/12/12 16:55:28;;;;;;;1.67;1.58;;;;;;;-4.73;91.94;101164.19;10517440;28;20037;-76
2022/12/12 17:00:30;;;;;;;3.95;2.00;;;;;;;-4.80;92.12;101173.00;10498173;28;20497;-75
2022/12/12 17:05:34;;;;;;;1.20;1.00;;;;;;;-4.88;92.03;101164.69;10519575;28;20044;-75
2022/12/12 17:10:36;;;;;;;2.60;2.40;;;;;;;-4.98;92.12;101169.78;10525848;28;20036;-75
2022/12/12 17:15:38;;;;;;;3.92;1.92;;;;;;;-5.02;92.27;101176.28;10507148;28;20032;-73
2022/12/12 17:20:40;;;;;;;1.80;1.63;;;;;;;-5.05;92.07;101172.56;10529901;28;20047;-74
2022/12/12 17:25:41;;;;;;;1.30;1.20;;;;;;;-4.99;92.27;101178.19;10509597;28;20412;-74
2022/12/12 17:30:45;;;;;;;5.03;3.25;;;;;;;-5.02;92.52;101176.28;10517459;28;20039;-76
2022/12/12 17:35:57;;;;;;;6.65;2.30;;;;;;;-5.02;92.69;101177.94;10510806;28;20043;-74
2022/12/12 17:41:03;;;;;;;1.60;1.20;;;;;;;-5.01;92.42;101179.75;10524400;28;20036;-74
2022/12/12 17:46:08;;;;;;;4.43;2.97;;;;;;;-5.05;92.54;101185.34;10515954;28;20036;-74
2022/12/12 17:51:11;;;;;;;5.53;3.40;;;;;;;-5.12;92.53;101188.13;10512212;28;20044;-74
2022/12/12 17:56:15;;;;;;;2.10;1.90;;;;;;;-5.14;92.50;101190.53;10507197;28;20622;-74
2022/12/12 18:01:16;;;;;;;5.22;2.67;;;;;;;-5.16;92.85;101187.88;10496536;28;20044;-76
2022/12/12 18:06:20;;;;;;;2.60;2.38;;;;;;;-5.17;92.79;101180.94;10514491;28;20048;-75
2022/12/12 18:11:25;;;;;;;1.75;1.63;;;;;;;-5.20;92.79;101183.25;10520647;28;20141;-74
2022/12/12 18:16:29;;;;;;;6.55;2.70;;;;;;;-5.21;92.76;101194.25;10504591;28;20051;-74
2022/12/12 18:21:31;;;;;;;1.48;1.40;;;;;;;-5.20;92.92;101193.47;10504510;28;20071;-75
2022/12/12 18:26:55;;;;;;;2.13;1.95;;;;;;;-5.34;93.18;101176.06;10515548;28;20097;-74
2022/12/12 18:31:57;;;;;;;5.75;3.95;;;;;;;-5.41;93.09;101176.28;10469783;28;20048;-74
2022/12/12 18:36:58;;;;;;;3.40;3.10;;;;;;;-5.42;93.28;101171.94;10502186;28;20036;-74
2022/12/12 18:42:00;;;;;;;2.42;2.22;;;;;;;-5.50;92.99;101167.06;10509135;28;20415;-75
2022/12/12 18:47:01;;;;;;;2.40;2.08;;;;;;;-5.51;92.99;101162.72;10513409;28;20052;-74
2022/12/12 18:52:03;;;;;;;2.42;1.92;;;;;;;-5.57;93.36;101154.56;10519321;28;20113;-74
2022/12/12 18:57:05;;;;;;;2.85;2.17;;;;;;;-5.65;92.90;101145.31;10513177;28;20059;-74
2022/12/12 19:02:11;;;;;;;4.00;2.90;;;;;;;-5.75;93.36;101158.00;10512878;28;20047;-74
2022/12/12 19:07:12;;;;;;;4.82;2.95;;;;;;;-5.83;93.13;101161.56;10512894;28;20059;-73
2022/12/12 19:12:14;;;;;;;2.38;2.17;;;;;;;-5.87;93.30;101175.69;10465800;28;20044;-74
2022/12/12 19:17:17;;;;;;;2.92;2.67;;;;;;;-5.94;93.60;101168.28;10528667;28;20082;-74
2022/12/12 19:22:25;;;;;;;3.90;2.85;;;;;;;-6.01;93.35;101177.03;10528363;28;20588;-73
2022/12/12 19:27:47;;;;;;;3.20;2.42;;;;;;;-6.06;93.11;101178.31;10486317;28;20083;-73
2022/12/12 19:32:49;;;;;;;3.05;2.83;;;;;;;-6.07;93.33;101181.59;10516496;28;20052;-76
2022/12/12 19:37:50;;;;;;;3.60;2.10;;;;;;;-6.16;93.77;101185.88;10527108;28;20047;-76
2022/12/12 19:42:52;;;;;;;1.48;1.38;;;;;;;-6.28;93.17;101184.00;10490998;28;20210;-76
2022/12/12 19:47:53;;;;;;;3.50;2.70;;;;;;;-6.32;93.31;101173.38;10494598;28;20550;-76
2022/12/12 19:52:55;;;;;;;1.60;1.50;;;;;;;-6.37;93.30;101170.41;10505509;28;20057;-76
2022/12/12 19:57:56;;;;;;;1.63;1.52;;;;;;;-6.45;93.63;101177.38;10497968;28;20055;-76
2022/12/12 20:02:58;;;;;;;3.05;1.75;;;;;;;-6.50;93.54;101178.63;10496360;28;20583;-76
2022/12/12 20:08:00;;;;;;;4.65;3.83;;;;;;;-6.59;93.28;101168.47;10493345;28;20101;-73
2022/12/12 20:13:02;;;;;;;1.67;1.58;;;;;;;-6.63;93.17;101175.72;10530633;28;20463;-76
2022/12/12 20:18:04;;;;;;;1.85;1.67;;;;;;;-6.69;93.28;101175.16;10536164;28;20044;-75
2022/12/12 20:23:06;;;;;;;1.63;1.52;;;;;;;-6.72;93.27;101185.94;10509523;28;20098;-76
2022/12/12 20:28:08;;;;;;;5.35;2.55;;;;;;;-6.71;93.39;101182.66;10522738;28;20047;-76
2022/12/12 20:33:11;;;;;;;4.88;3.08;;;;;;;-6.77;93.46;101166.78;10518518;28;20072;-75
2022/12/12 20:38:12;;;;;;;4.65;3.38;;;;;;;-6.83;93.34;101174.78;10508628;28;20070;-77
2022/12/12 20:43:14;;;;;;;5.00;4.50;;;;;;;-6.84;93.64;101178.06;10491967;28;20467;-77
2022/12/12 20:48:15;;;;;;;3.90;3.38;;;;;;;-6.89;93.58;101176.75;10493383;28;20059;-76
2022/12/12 20:53:17;;;;;;;2.75;2.55;;;;;;;-6.90;93.79;101174.03;10499947;28;20059;-77
2022/12/12 20:58:18;;;;;;;6.13;5.22;;;;;;;-6.96;93.62;101177.81;10518707;28;20051;-76
2022/12/12 21:03:20;;;;;;;1.25;1.20;;;;;;;-6.97;93.63;101170.91;10510369;28;20417;-77
2022/12/12 21:08:21;;;;;;;1.65;1.55;;;;;;;-6.98;93.07;101171.69;10516638;28;20105;-78
2022/12/12 21:13:23;;;;;;;4.03;3.70;;;;;;;-7.00;93.60;101177.38;10516958;28;20048;-77
2022/12/12 21:18:24;;;;;;;2.30;2.10;;;;;;;-7.01;93.52;101167.94;10524420;28;20091;-79
2022/12/12 21:23:26;;;;;;;3.92;2.88;;;;;;;-7.07;93.61;101173.38;10504192;28;20501;-76
2022/12/12 21:28:27;;;;;;;8.27;4.20;;;;;;;-7.13;93.36;101177.88;10473138;28;20591;-77
2022/12/12 21:33:29;;;;;;;4.95;3.53;;;;;;;-7.17;93.44;101183.47;10503665;28;20658;-77
2022/12/12 21:38:30;;;;;;;3.10;2.70;;;;;;;-7.26;93.09;101173.31;10474376;28;20045;-77
2022/12/12 21:43:34;;;;;;;5.20;4.63;;;;;;;-7.26;93.44;101173.31;10517089;28;20044;-77
2022/12/12 21:48:35;;;;;;;8.85;4.07;;;;;;;-7.31;93.00;101170.31;10508751;28;20048;-79
2022/12/12 21:53:37;;;;;;;8.77;4.95;;;;;;;-7.32;93.50;101173.63;10491493;28;20036;-78
2022/12/12 21:58:41;;;;;;;11.52;5.85;;;;;;;-7.37;93.03;101174.84;10506953;28;20044;-78
2022/12/12 22:03:44;;;;;;;1.35;1.05;;;;;;;-7.36;92.88;101178.28;10490456;28;20075;-76
2022/12/12 22:08:46;;;;;;;3.45;2.28;;;;;;;-7.39;93.22;101176.31;10497952;28;20044;-77
2022/12/12 22:13:48;;;;;;;2.08;1.90;;;;;;;-7.46;93.16;101168.84;10513120;28;20101;-78
2022/12/12 22:18:52;;;;;;;3.25;2.97;;;;;;;-7.45;93.32;101165.56;10513240;28;20052;-78
2022/12/12 22:23:57;;;;;;;4.18;3.72;;;;;;;-7.42;93.05;101170.94;10521410;28;20048;-78
2022/12/12 22:29:04;;;;;;;1.63;1.52;;;;;;;-7.42;93.08;101173.50;10494002;28;20040;-79
2022/12/12 22:34:10;;;;;;;0.77;0.63;;;;;;;-7.44;93.53;101176.66;10520584;28;20056;-78
2022/12/12 22:39:14;;;;;;;2.70;2.47;;;;;;;-7.44;93.01;101177.53;10513900;28;20643;-79
2022/12/12 22:44:18;;;;;;;1.02;0.98;;;;;;;-7.48;92.95;101175.44;10527893;28;20044;-77
2022/12/12 22:49:24;;;;;;;5.30;3.22;;;;;;;-7.50;93.55;101175.31;10497128;28;20043;-78
2022/12/12 22:54:26;;;;;;;10.30;3.40;;;;;;;-7.54;93.03;101167.25;10509284;28;20693;-77
2022/12/12 22:59:27;;;;;;;4.47;2.58;;;;;;;-7.58;93.44;101168.63;10514766;28;20044;-77
2022/12/12 23:04:29;;;;;;;2.58;2.05;;;;;;;-7.61;93.66;101175.03;10513879;28;20052;-78
2022/12/12 23:09:30;;;;;;;1.27;1.20;;;;;;;-7.59;93.62;101178.63;10496457;28;20506;-77
2022/12/12 23:14:32;;;;;;;0.70;0.70;;;;;;;-7.64;92.99;101171.47;10512547;28;20051;-76
2022/12/12 23:19:34;;;;;;;1.55;1.45;;;;;;;-7.65;93.23;101164.56;10504465;28;20052;-78
2022/12/12 23:24:36;;;;;;;2.53;2.22;;;;;;;-7.67;93.37;101163.53;10525883;28;20068;-77
2022/12/12 23:29:38;;;;;;;5.05;4.10;;;;;;;-7.72;93.24;101163.84;10514448;28;20048;-79
2022/12/12 23:34:39;;;;;;;2.97;2.03;;;;;;;-7.75;92.86;101166.09;10512943;28;20052;-77
2022/12/12 23:39:41;;;;;;;1.30;1.20;;;;;;;-7.83;92.84;101160.28;10505744;28;20044;-78